If you wish to contribute or participate in the discussions about articles you are invited to join SKYbrary as a registered user

 Actions

Atka Airport

From SKYbrary Wiki

PAAK
Airport
ICAO: PAAK – IATA: AKB
Summary
Name Atka Airport
Region North America
Territory Alaska US.gif
Location , Alaska
Serving Atka
Elevation 17.374 m
57 ft
57 ft17.374 m
Type small airport
Coordinates 52° 13' 13.0008", -174° 12' 23.0004"
Close to Bering Sea
Runways
Designator Length Width Surface ROPS
16/34 1372 m4,501.312 ft 30 m98.425 ft ASPH-E /


METAR
Observation PAAK 251856Z AUTO 25011G27KT 8SM OVC044 03/M05 A2994 RMK AO2 PK WND 25033/1832 SLP140 T00331050
Station Atka, Atka Airport
Date/Time 25 February 2018 18:56:00
Wind direction 250°
Wind speed 11 kts
Lowest cloud amount overcast
Temperature 3.3°C
Dew point
Humidity 54%
QNH hPa
Weather condition n/a